sensor_id;sensor_type;location;lat;lon;timestamp;P1;durP1;ratioP1;P2;durP2;ratioP2
323;SDS011;149;51.094;17.002;2023-02-03T00:00:18;10.80;;;6.93;;
323;SDS011;149;51.094;17.002;2023-02-03T00:02:45;10.77;;;7.65;;
323;SDS011;149;51.094;17.002;2023-02-03T00:05:12;12.82;;;7.70;;
323;SDS011;149;51.094;17.002;2023-02-03T00:07:41;10.00;;;6.50;;
323;SDS011;149;51.094;17.002;2023-02-03T00:10:10;11.02;;;5.90;;
323;SDS011;149;51.094;17.002;2023-02-03T00:12:38;11.68;;;7.50;;
323;SDS011;149;51.094;17.002;2023-02-03T00:15:06;10.45;;;7.63;;
323;SDS011;149;51.094;17.002;2023-02-03T00:17:34;9.63;;;6.13;;
323;SDS011;149;51.094;17.002;2023-02-03T00:20:03;10.52;;;7.18;;
323;SDS011;149;51.094;17.002;2023-02-03T00:22:30;15.95;;;7.43;;
323;SDS011;149;51.094;17.002;2023-02-03T00:24:58;15.25;;;9.40;;
323;SDS011;149;51.094;17.002;2023-02-03T00:27:27;14.98;;;7.93;;
323;SDS011;149;51.094;17.002;2023-02-03T00:29:55;15.85;;;9.52;;
323;SDS011;149;51.094;17.002;2023-02-03T00:32:25;12.05;;;8.20;;
323;SDS011;149;51.094;17.002;2023-02-03T00:34:56;14.20;;;8.02;;
323;SDS011;149;51.094;17.002;2023-02-03T00:37:24;13.45;;;7.95;;
323;SDS011;149;51.094;17.002;2023-02-03T00:39:53;14.10;;;9.35;;
323;SDS011;149;51.094;17.002;2023-02-03T00:42:21;21.67;;;9.32;;
323;SDS011;149;51.094;17.002;2023-02-03T00:44:52;16.52;;;9.30;;
323;SDS011;149;51.094;17.002;2023-02-03T00:47:20;9.90;;;8.07;;
323;SDS011;149;51.094;17.002;2023-02-03T00:49:48;12.38;;;9.27;;
323;SDS011;149;51.094;17.002;2023-02-03T00:52:16;13.07;;;8.52;;
323;SDS011;149;51.094;17.002;2023-02-03T00:54:43;17.85;;;10.55;;
323;SDS011;149;51.094;17.002;2023-02-03T00:57:11;15.73;;;10.57;;
323;SDS011;149;51.094;17.002;2023-02-03T00:59:39;16.20;;;12.20;;
323;SDS011;149;51.094;17.002;2023-02-03T01:02:07;15.65;;;10.32;;
323;SDS011;149;51.094;17.002;2023-02-03T01:04:34;16.52;;;12.00;;
323;SDS011;149;51.094;17.002;2023-02-03T01:07:02;17.02;;;10.88;;
323;SDS011;149;51.094;17.002;2023-02-03T01:09:32;18.05;;;10.77;;
323;SDS011;149;51.094;17.002;2023-02-03T01:12:05;20.25;;;12.05;;
323;SDS011;149;51.094;17.002;2023-02-03T01:14:33;21.02;;;11.45;;
323;SDS011;149;51.094;17.002;2023-02-03T01:17:05;22.45;;;11.68;;
323;SDS011;149;51.094;17.002;2023-02-03T01:19:33;16.75;;;11.75;;
323;SDS011;149;51.094;17.002;2023-02-03T01:22:01;20.92;;;11.57;;
323;SDS011;149;51.094;17.002;2023-02-03T01:24:29;19.33;;;12.57;;
323;SDS011;149;51.094;17.002;2023-02-03T01:26:56;18.55;;;12.02;;
323;SDS011;149;51.094;17.002;2023-02-03T01:29:23;15.00;;;11.13;;
323;SDS011;149;51.094;17.002;2023-02-03T01:31:52;14.25;;;10.35;;
323;SDS011;149;51.094;17.002;2023-02-03T01:34:19;22.75;;;11.65;;
323;SDS011;149;51.094;17.002;2023-02-03T01:36:48;17.35;;;11.73;;
323;SDS011;149;51.094;17.002;2023-02-03T01:39:15;27.92;;;15.52;;
323;SDS011;149;51.094;17.002;2023-02-03T01:41:43;18.33;;;10.07;;
323;SDS011;149;51.094;17.002;2023-02-03T01:47:05;17.08;;;11.95;;
323;SDS011;149;51.094;17.002;2023-02-03T01:52:25;16.00;;;9.70;;
323;SDS011;149;51.094;17.002;2023-02-03T01:54:53;17.17;;;10.88;;
323;SDS011;149;51.094;17.002;2023-02-03T01:57:26;22.25;;;11.05;;
323;SDS011;149;51.094;17.002;2023-02-03T01:59:59;14.60;;;9.70;;
323;SDS011;149;51.094;17.002;2023-02-03T02:02:34;15.98;;;9.88;;
323;SDS011;149;51.094;17.002;2023-02-03T02:05:10;19.42;;;10.60;;
323;SDS011;149;51.094;17.002;2023-02-03T02:07:55;17.23;;;8.70;;
323;SDS011;149;51.094;17.002;2023-02-03T02:10:25;18.33;;;10.38;;
323;SDS011;149;51.094;17.002;2023-02-03T02:12:55;15.68;;;9.05;;
323;SDS011;149;51.094;17.002;2023-02-03T02:15:25;14.43;;;9.70;;
323;SDS011;149;51.094;17.002;2023-02-03T02:18:19;14.35;;;8.65;;
323;SDS011;149;51.094;17.002;2023-02-03T02:27:08;12.38;;;7.82;;
323;SDS011;149;51.094;17.002;2023-02-03T02:33:02;12.27;;;8.93;;
323;SDS011;149;51.094;17.002;2023-02-03T02:38:56;11.50;;;7.65;;
323;SDS011;149;51.094;17.002;2023-02-03T02:41:40;13.77;;;8.07;;
323;SDS011;149;51.094;17.002;2023-02-03T02:44:24;15.70;;;8.50;;
323;SDS011;149;51.094;17.002;2023-02-03T02:46:59;15.35;;;9.45;;
323;SDS011;149;51.094;17.002;2023-02-03T02:49:47;16.77;;;9.82;;
323;SDS011;149;51.094;17.002;2023-02-03T02:52:27;12.82;;;9.07;;
323;SDS011;149;51.094;17.002;2023-02-03T02:55:07;10.60;;;8.07;;
323;SDS011;149;51.094;17.002;2023-02-03T02:57:39;9.57;;;6.43;;
323;SDS011;149;51.094;17.002;2023-02-03T03:00:09;10.85;;;6.13;;
323;SDS011;149;51.094;17.002;2023-02-03T03:02:38;13.10;;;7.38;;
323;SDS011;149;51.094;17.002;2023-02-03T03:05:05;9.68;;;6.68;;
323;SDS011;149;51.094;17.002;2023-02-03T03:07:40;7.20;;;5.65;;
323;SDS011;149;51.094;17.002;2023-02-03T03:10:14;11.52;;;8.25;;
323;SDS011;149;51.094;17.002;2023-02-03T03:12:45;9.25;;;7.10;;
323;SDS011;149;51.094;17.002;2023-02-03T03:15:18;10.95;;;7.53;;
323;SDS011;149;51.094;17.002;2023-02-03T03:17:50;11.20;;;7.43;;
323;SDS011;149;51.094;17.002;2023-02-03T03:20:25;11.43;;;7.28;;
323;SDS011;149;51.094;17.002;2023-02-03T03:22:58;16.67;;;7.70;;
323;SDS011;149;51.094;17.002;2023-02-03T03:25:52;11.77;;;7.78;;
323;SDS011;149;51.094;17.002;2023-02-03T03:28:28;8.60;;;5.88;;
323;SDS011;149;51.094;17.002;2023-02-03T03:31:03;9.95;;;5.15;;
323;SDS011;149;51.094;17.002;2023-02-03T03:33:31;10.25;;;6.80;;
323;SDS011;149;51.094;17.002;2023-02-03T03:38:36;9.95;;;5.95;;
323;SDS011;149;51.094;17.002;2023-02-03T03:41:13;9.85;;;7.00;;
323;SDS011;149;51.094;17.002;2023-02-03T03:43:52;11.02;;;5.65;;
323;SDS011;149;51.094;17.002;2023-02-03T03:46:27;10.38;;;5.75;;
323;SDS011;149;51.094;17.002;2023-02-03T03:49:01;8.38;;;7.00;;
323;SDS011;149;51.094;17.002;2023-02-03T03:51:32;7.38;;;5.43;;
323;SDS011;149;51.094;17.002;2023-02-03T03:54:06;9.48;;;6.05;;
323;SDS011;149;51.094;17.002;2023-02-03T03:57:20;14.52;;;6.28;;
323;SDS011;149;51.094;17.002;2023-02-03T03:59:33;10.73;;;6.40;;
323;SDS011;149;51.094;17.002;2023-02-03T04:02:05;7.85;;;5.95;;
323;SDS011;149;51.094;17.002;2023-02-03T04:04:35;10.68;;;6.97;;
323;SDS011;149;51.094;17.002;2023-02-03T04:07:05;9.52;;;5.65;;
323;SDS011;149;51.094;17.002;2023-02-03T04:09:32;9.68;;;6.25;;
323;SDS011;149;51.094;17.002;2023-02-03T04:12:02;9.50;;;5.82;;
323;SDS011;149;51.094;17.002;2023-02-03T04:14:33;9.02;;;6.03;;
323;SDS011;149;51.094;17.002;2023-02-03T04:17:06;8.43;;;5.10;;
323;SDS011;149;51.094;17.002;2023-02-03T04:19:34;11.10;;;6.13;;
323;SDS011;149;51.094;17.002;2023-02-03T04:22:02;7.90;;;5.40;;
323;SDS011;149;51.094;17.002;2023-02-03T04:24:29;11.05;;;6.13;;
323;SDS011;149;51.094;17.002;2023-02-03T04:27:05;12.32;;;6.60;;
323;SDS011;149;51.094;17.002;2023-02-03T04:29:34;10.32;;;6.00;;
323;SDS011;149;51.094;17.002;2023-02-03T04:32:01;6.70;;;6.00;;
323;SDS011;149;51.094;17.002;2023-02-03T04:34:28;10.98;;;6.57;;
323;SDS011;149;51.094;17.002;2023-02-03T04:36:55;8.05;;;6.43;;
323;SDS011;149;51.094;17.002;2023-02-03T04:39:22;10.38;;;7.75;;
323;SDS011;149;51.094;17.002;2023-02-03T04:41:49;8.85;;;6.38;;
323;SDS011;149;51.094;17.002;2023-02-03T04:44:17;6.50;;;5.70;;
323;SDS011;149;51.094;17.002;2023-02-03T04:46:44;10.88;;;5.72;;
323;SDS011;149;51.094;17.002;2023-02-03T04:49:14;8.73;;;6.68;;
323;SDS011;149;51.094;17.002;2023-02-03T04:51:47;12.50;;;7.18;;
323;SDS011;149;51.094;17.002;2023-02-03T04:54:16;13.43;;;8.15;;
323;SDS011;149;51.094;17.002;2023-02-03T04:56:43;18.85;;;8.73;;
323;SDS011;149;51.094;17.002;2023-02-03T04:59:10;9.00;;;5.90;;
323;SDS011;149;51.094;17.002;2023-02-03T05:01:37;10.25;;;7.63;;
323;SDS011;149;51.094;17.002;2023-02-03T05:04:07;9.90;;;6.68;;
323;SDS011;149;51.094;17.002;2023-02-03T05:06:34;13.35;;;5.75;;
323;SDS011;149;51.094;17.002;2023-02-03T05:09:02;10.55;;;5.90;;
323;SDS011;149;51.094;17.002;2023-02-03T05:11:32;8.20;;;5.63;;
323;SDS011;149;51.094;17.002;2023-02-03T05:13:59;8.98;;;5.47;;
323;SDS011;149;51.094;17.002;2023-02-03T05:16:36;5.30;;;4.80;;
323;SDS011;149;51.094;17.002;2023-02-03T05:19:03;12.57;;;4.88;;
323;SDS011;149;51.094;17.002;2023-02-03T05:21:31;10.27;;;6.30;;
323;SDS011;149;51.094;17.002;2023-02-03T05:23:58;10.80;;;6.65;;
323;SDS011;149;51.094;17.002;2023-02-03T05:26:31;12.85;;;5.35;;
323;SDS011;149;51.094;17.002;2023-02-03T05:28:59;5.63;;;5.00;;
323;SDS011;149;51.094;17.002;2023-02-03T05:31:27;7.57;;;6.07;;
323;SDS011;149;51.094;17.002;2023-02-03T05:34:01;9.25;;;4.80;;
323;SDS011;149;51.094;17.002;2023-02-03T05:36:29;7.88;;;4.65;;
323;SDS011;149;51.094;17.002;2023-02-03T05:38:59;9.35;;;5.50;;
323;SDS011;149;51.094;17.002;2023-02-03T05:41:26;7.05;;;5.38;;
323;SDS011;149;51.094;17.002;2023-02-03T05:44:12;7.28;;;4.63;;
323;SDS011;149;51.094;17.002;2023-02-03T05:46:40;7.07;;;5.07;;
323;SDS011;149;51.094;17.002;2023-02-03T05:49:09;8.43;;;5.57;;
323;SDS011;149;51.094;17.002;2023-02-03T05:51:37;13.57;;;7.88;;
323;SDS011;149;51.094;17.002;2023-02-03T05:54:06;14.82;;;7.40;;
323;SDS011;149;51.094;17.002;2023-02-03T05:56:36;6.53;;;5.85;;
323;SDS011;149;51.094;17.002;2023-02-03T05:59:09;9.77;;;6.30;;
323;SDS011;149;51.094;17.002;2023-02-03T06:01:41;8.90;;;5.22;;
323;SDS011;149;51.094;17.002;2023-02-03T06:04:10;9.23;;;6.68;;
323;SDS011;149;51.094;17.002;2023-02-03T06:06:39;8.82;;;5.65;;
323;SDS011;149;51.094;17.002;2023-02-03T06:09:07;9.70;;;7.60;;
323;SDS011;149;51.094;17.002;2023-02-03T06:11:37;9.18;;;6.80;;
323;SDS011;149;51.094;17.002;2023-02-03T06:14:08;9.45;;;7.05;;
323;SDS011;149;51.094;17.002;2023-02-03T06:16:37;13.85;;;9.18;;
323;SDS011;149;51.094;17.002;2023-02-03T06:19:06;9.35;;;7.07;;
323;SDS011;149;51.094;17.002;2023-02-03T06:21:34;14.30;;;7.85;;
323;SDS011;149;51.094;17.002;2023-02-03T06:24:01;12.32;;;6.82;;
323;SDS011;149;51.094;17.002;2023-02-03T06:26:30;10.60;;;7.18;;
323;SDS011;149;51.094;17.002;2023-02-03T06:28:59;14.07;;;8.70;;
323;SDS011;149;51.094;17.002;2023-02-03T06:31:26;13.98;;;8.70;;
323;SDS011;149;51.094;17.002;2023-02-03T06:34:08;13.00;;;8.07;;
323;SDS011;149;51.094;17.002;2023-02-03T06:36:36;16.25;;;8.70;;
323;SDS011;149;51.094;17.002;2023-02-03T06:39:03;17.83;;;10.35;;
323;SDS011;149;51.094;17.002;2023-02-03T06:41:33;12.05;;;8.32;;
323;SDS011;149;51.094;17.002;2023-02-03T06:44:02;13.63;;;8.63;;
323;SDS011;149;51.094;17.002;2023-02-03T06:46:31;14.05;;;10.80;;
323;SDS011;149;51.094;17.002;2023-02-03T06:49:01;17.17;;;8.27;;
323;SDS011;149;51.094;17.002;2023-02-03T06:51:31;12.10;;;8.73;;
323;SDS011;149;51.094;17.002;2023-02-03T06:53:58;15.02;;;8.90;;
323;SDS011;149;51.094;17.002;2023-02-03T06:56:26;10.52;;;7.18;;
323;SDS011;149;51.094;17.002;2023-02-03T06:58:54;10.93;;;8.07;;
323;SDS011;149;51.094;17.002;2023-02-03T07:01:24;13.57;;;8.25;;
323;SDS011;149;51.094;17.002;2023-02-03T07:03:51;10.98;;;8.40;;
323;SDS011;149;51.094;17.002;2023-02-03T07:06:25;13.13;;;7.85;;
323;SDS011;149;51.094;17.002;2023-02-03T07:08:55;10.70;;;8.13;;
323;SDS011;149;51.094;17.002;2023-02-03T07:11:25;10.90;;;7.68;;
323;SDS011;149;51.094;17.002;2023-02-03T07:13:53;10.88;;;8.27;;
323;SDS011;149;51.094;17.002;2023-02-03T07:16:23;12.73;;;7.57;;
323;SDS011;149;51.094;17.002;2023-02-03T07:18:54;10.35;;;6.93;;
323;SDS011;149;51.094;17.002;2023-02-03T07:21:22;11.90;;;7.47;;
323;SDS011;149;51.094;17.002;2023-02-03T07:23:54;7.05;;;5.88;;
323;SDS011;149;51.094;17.002;2023-02-03T07:26:21;10.70;;;7.82;;
323;SDS011;149;51.094;17.002;2023-02-03T07:28:49;12.68;;;8.50;;
323;SDS011;149;51.094;17.002;2023-02-03T07:31:20;12.63;;;8.95;;
323;SDS011;149;51.094;17.002;2023-02-03T07:33:49;11.30;;;6.78;;
323;SDS011;149;51.094;17.002;2023-02-03T07:36:16;10.55;;;7.03;;
323;SDS011;149;51.094;17.002;2023-02-03T07:38:44;12.75;;;8.32;;
323;SDS011;149;51.094;17.002;2023-02-03T07:41:11;9.25;;;7.70;;
323;SDS011;149;51.094;17.002;2023-02-03T07:43:38;8.75;;;6.80;;
323;SDS011;149;51.094;17.002;2023-02-03T07:46:08;14.25;;;8.60;;
323;SDS011;149;51.094;17.002;2023-02-03T07:48:37;10.48;;;7.28;;
323;SDS011;149;51.094;17.002;2023-02-03T07:51:04;9.75;;;8.38;;
323;SDS011;149;51.094;17.002;2023-02-03T07:53:31;9.73;;;7.88;;
323;SDS011;149;51.094;17.002;2023-02-03T07:56:00;8.88;;;6.03;;
323;SDS011;149;51.094;17.002;2023-02-03T07:58:30;8.55;;;6.40;;
323;SDS011;149;51.094;17.002;2023-02-03T08:00:57;11.48;;;6.65;;
323;SDS011;149;51.094;17.002;2023-02-03T08:03:26;13.98;;;7.35;;
323;SDS011;149;51.094;17.002;2023-02-03T08:05:55;14.63;;;8.45;;
323;SDS011;149;51.094;17.002;2023-02-03T08:08:35;16.48;;;10.20;;
323;SDS011;149;51.094;17.002;2023-02-03T08:11:13;10.52;;;8.55;;
323;SDS011;149;51.094;17.002;2023-02-03T08:13:43;14.63;;;9.73;;
323;SDS011;149;51.094;17.002;2023-02-03T08:16:13;10.02;;;8.05;;
323;SDS011;149;51.094;17.002;2023-02-03T08:18:40;13.43;;;8.75;;
323;SDS011;149;51.094;17.002;2023-02-03T08:21:10;11.43;;;9.40;;
323;SDS011;149;51.094;17.002;2023-02-03T08:23:37;13.63;;;8.15;;
323;SDS011;149;51.094;17.002;2023-02-03T08:26:04;12.60;;;8.10;;
323;SDS011;149;51.094;17.002;2023-02-03T08:28:34;13.18;;;8.15;;
323;SDS011;149;51.094;17.002;2023-02-03T08:31:10;11.80;;;8.10;;
323;SDS011;149;51.094;17.002;2023-02-03T08:33:39;9.07;;;8.07;;
323;SDS011;149;51.094;17.002;2023-02-03T08:36:33;9.80;;;6.43;;
323;SDS011;149;51.094;17.002;2023-02-03T08:39:05;11.15;;;8.13;;
323;SDS011;149;51.094;17.002;2023-02-03T08:41:33;11.48;;;8.40;;
323;SDS011;149;51.094;17.002;2023-02-03T08:44:00;15.95;;;11.15;;
323;SDS011;149;51.094;17.002;2023-02-03T08:46:28;12.20;;;7.20;;
323;SDS011;149;51.094;17.002;2023-02-03T08:48:55;13.95;;;8.95;;
323;SDS011;149;51.094;17.002;2023-02-03T08:51:28;10.38;;;7.47;;
323;SDS011;149;51.094;17.002;2023-02-03T08:53:57;13.25;;;7.90;;
323;SDS011;149;51.094;17.002;2023-02-03T08:56:24;11.48;;;8.23;;
323;SDS011;149;51.094;17.002;2023-02-03T08:58:52;9.85;;;7.75;;
323;SDS011;149;51.094;17.002;2023-02-03T09:01:23;9.32;;;6.50;;
323;SDS011;149;51.094;17.002;2023-02-03T09:06:34;12.27;;;8.50;;
323;SDS011;149;51.094;17.002;2023-02-03T09:09:03;11.10;;;7.75;;
323;SDS011;149;51.094;17.002;2023-02-03T09:11:31;12.25;;;9.27;;
323;SDS011;149;51.094;17.002;2023-02-03T09:13:59;11.18;;;9.10;;
323;SDS011;149;51.094;17.002;2023-02-03T09:19:25;9.60;;;7.80;;
323;SDS011;149;51.094;17.002;2023-02-03T09:27:25;9.63;;;7.32;;
323;SDS011;149;51.094;17.002;2023-02-03T09:29:52;7.65;;;6.38;;
323;SDS011;149;51.094;17.002;2023-02-03T10:20:20;10.15;;;7.72;;
323;SDS011;149;51.094;17.002;2023-02-03T10:31:26;9.82;;;8.25;;
323;SDS011;149;51.094;17.002;2023-02-03T10:41:39;10.48;;;7.05;;
323;SDS011;149;51.094;17.002;2023-02-03T10:57:52;16.02;;;8.90;;
323;SDS011;149;51.094;17.002;2023-02-03T11:00:30;11.82;;;8.55;;
323;SDS011;149;51.094;17.002;2023-02-03T11:05:51;15.48;;;9.55;;
323;SDS011;149;51.094;17.002;2023-02-03T11:08:48;16.65;;;8.93;;
323;SDS011;149;51.094;17.002;2023-02-03T11:17:27;11.50;;;8.80;;
323;SDS011;149;51.094;17.002;2023-02-03T11:20:15;11.40;;;8.00;;
323;SDS011;149;51.094;17.002;2023-02-03T11:22:43;9.32;;;7.60;;
323;SDS011;149;51.094;17.002;2023-02-03T11:29:05;15.00;;;7.28;;
323;SDS011;149;51.094;17.002;2023-02-03T11:31:36;8.52;;;6.13;;
323;SDS011;149;51.094;17.002;2023-02-03T11:34:04;7.80;;;6.22;;
323;SDS011;149;51.094;17.002;2023-02-03T11:36:41;7.22;;;5.63;;
323;SDS011;149;51.094;17.002;2023-02-03T11:39:16;7.00;;;5.32;;
323;SDS011;149;51.094;17.002;2023-02-03T11:41:51;9.55;;;6.30;;
323;SDS011;149;51.094;17.002;2023-02-03T11:44:25;9.82;;;5.35;;
323;SDS011;149;51.094;17.002;2023-02-03T11:46:58;5.90;;;4.80;;
323;SDS011;149;51.094;17.002;2023-02-03T11:49:37;9.30;;;5.22;;
323;SDS011;149;51.094;17.002;2023-02-03T11:55:20;9.32;;;6.50;;
323;SDS011;149;51.094;17.002;2023-02-03T12:04:53;6.82;;;4.60;;
323;SDS011;149;51.094;17.002;2023-02-03T12:07:42;12.50;;;9.07;;
323;SDS011;149;51.094;17.002;2023-02-03T12:18:38;4.07;;;2.72;;
323;SDS011;149;51.094;17.002;2023-02-03T12:24:17;4.45;;;3.88;;
323;SDS011;149;51.094;17.002;2023-02-03T12:29:42;2.88;;;2.15;;
323;SDS011;149;51.094;17.002;2023-02-03T12:35:10;3.83;;;2.95;;
323;SDS011;149;51.094;17.002;2023-02-03T12:37:42;4.15;;;2.97;;
323;SDS011;149;51.094;17.002;2023-02-03T12:40:14;2.83;;;2.47;;
323;SDS011;149;51.094;17.002;2023-02-03T12:43:09;5.50;;;2.75;;
323;SDS011;149;51.094;17.002;2023-02-03T12:45:44;2.47;;;1.75;;
323;SDS011;149;51.094;17.002;2023-02-03T12:48:25;2.47;;;2.28;;
323;SDS011;149;51.094;17.002;2023-02-03T12:51:02;2.50;;;1.90;;
323;SDS011;149;51.094;17.002;2023-02-03T12:53:38;3.03;;;1.90;;
323;SDS011;149;51.094;17.002;2023-02-03T12:56:11;5.20;;;2.30;;
323;SDS011;149;51.094;17.002;2023-02-03T12:58:56;1.50;;;1.40;;
323;SDS011;149;51.094;17.002;2023-02-03T13:01:34;1.90;;;1.65;;
323;SDS011;149;51.094;17.002;2023-02-03T13:09:57;3.25;;;1.73;;
323;SDS011;149;51.094;17.002;2023-02-03T13:12:35;2.40;;;1.80;;
323;SDS011;149;51.094;17.002;2023-02-03T13:18:05;4.40;;;3.10;;
323;SDS011;149;51.094;17.002;2023-02-03T13:20:35;2.85;;;2.38;;
323;SDS011;149;51.094;17.002;2023-02-03T13:23:04;2.17;;;1.63;;
323;SDS011;149;51.094;17.002;2023-02-03T13:25:41;2.45;;;1.92;;
323;SDS011;149;51.094;17.002;2023-02-03T13:42:29;3.17;;;2.90;;
323;SDS011;149;51.094;17.002;2023-02-03T13:47:50;1.33;;;1.20;;
323;SDS011;149;51.094;17.002;2023-02-03T13:50:28;3.28;;;1.50;;
323;SDS011;149;51.094;17.002;2023-02-03T13:53:32;3.53;;;2.67;;
323;SDS011;149;51.094;17.002;2023-02-03T13:55:59;2.45;;;1.63;;
323;SDS011;149;51.094;17.002;2023-02-03T13:58:30;4.05;;;2.20;;
323;SDS011;149;51.094;17.002;2023-02-03T14:05:56;2.15;;;1.80;;
323;SDS011;149;51.094;17.002;2023-02-03T14:16:40;2.70;;;1.85;;
323;SDS011;149;51.094;17.002;2023-02-03T14:24:37;3.42;;;2.65;;
323;SDS011;149;51.094;17.002;2023-02-03T14:27:15;6.15;;;2.10;;
323;SDS011;149;51.094;17.002;2023-02-03T14:30:00;3.00;;;2.25;;
323;SDS011;149;51.094;17.002;2023-02-03T14:32:48;3.15;;;1.70;;
323;SDS011;149;51.094;17.002;2023-02-03T14:35:19;2.05;;;1.30;;
323;SDS011;149;51.094;17.002;2023-02-03T14:37:50;3.40;;;1.77;;
323;SDS011;149;51.094;17.002;2023-02-03T14:43:14;17.08;;;3.60;;
323;SDS011;149;51.094;17.002;2023-02-03T14:48:45;2.60;;;1.63;;
323;SDS011;149;51.094;17.002;2023-02-03T14:51:22;4.43;;;2.05;;
323;SDS011;149;51.094;17.002;2023-02-03T15:05:48;8.80;;;2.95;;
323;SDS011;149;51.094;17.002;2023-02-03T15:17:10;6.57;;;2.63;;
323;SDS011;149;51.094;17.002;2023-02-03T15:19:47;5.25;;;2.40;;
323;SDS011;149;51.094;17.002;2023-02-03T15:22:27;6.88;;;2.50;;
323;SDS011;149;51.094;17.002;2023-02-03T15:24:57;17.38;;;2.40;;
323;SDS011;149;51.094;17.002;2023-02-03T15:27:27;8.23;;;2.70;;
323;SDS011;149;51.094;17.002;2023-02-03T15:29:56;6.72;;;2.70;;
323;SDS011;149;51.094;17.002;2023-02-03T15:32:29;8.38;;;2.80;;
323;SDS011;149;51.094;17.002;2023-02-03T15:35:02;8.77;;;2.67;;
323;SDS011;149;51.094;17.002;2023-02-03T15:37:43;5.00;;;2.95;;
323;SDS011;149;51.094;17.002;2023-02-03T15:40:19;6.22;;;2.50;;
323;SDS011;149;51.094;17.002;2023-02-03T15:42:59;6.65;;;2.83;;
323;SDS011;149;51.094;17.002;2023-02-03T15:45:55;7.18;;;3.72;;
323;SDS011;149;51.094;17.002;2023-02-03T15:48:28;9.00;;;3.28;;
323;SDS011;149;51.094;17.002;2023-02-03T15:51:12;12.50;;;3.40;;
323;SDS011;149;51.094;17.002;2023-02-03T15:54:07;3.80;;;2.53;;
323;SDS011;149;51.094;17.002;2023-02-03T15:56:44;7.43;;;2.60;;
323;SDS011;149;51.094;17.002;2023-02-03T15:59:55;9.38;;;3.20;;
323;SDS011;149;51.094;17.002;2023-02-03T16:02:29;6.20;;;3.13;;
323;SDS011;149;51.094;17.002;2023-02-03T16:05:03;11.05;;;3.20;;
323;SDS011;149;51.094;17.002;2023-02-03T16:07:44;6.22;;;3.00;;
323;SDS011;149;51.094;17.002;2023-02-03T16:10:27;12.23;;;4.00;;
323;SDS011;149;51.094;17.002;2023-02-03T16:13:20;9.18;;;3.08;;
323;SDS011;149;51.094;17.002;2023-02-03T16:16:05;9.93;;;3.47;;
323;SDS011;149;51.094;17.002;2023-02-03T16:18:47;5.07;;;2.83;;
323;SDS011;149;51.094;17.002;2023-02-03T16:21:34;10.68;;;3.38;;
323;SDS011;149;51.094;17.002;2023-02-03T16:35:56;9.75;;;2.90;;
323;SDS011;149;51.094;17.002;2023-02-03T16:38:45;3.67;;;2.00;;
323;SDS011;149;51.094;17.002;2023-02-03T16:41:31;8.40;;;2.00;;
323;SDS011;149;51.094;17.002;2023-02-03T16:44:18;7.57;;;2.90;;
323;SDS011;149;51.094;17.002;2023-02-03T16:47:04;6.75;;;2.33;;
323;SDS011;149;51.094;17.002;2023-02-03T16:50:20;7.07;;;2.13;;
323;SDS011;149;51.094;17.002;2023-02-03T16:53:14;5.90;;;2.22;;
323;SDS011;149;51.094;17.002;2023-02-03T16:55:43;9.77;;;2.05;;
323;SDS011;149;51.094;17.002;2023-02-03T16:58:11;11.57;;;3.20;;
323;SDS011;149;51.094;17.002;2023-02-03T17:00:42;16.13;;;3.90;;
323;SDS011;149;51.094;17.002;2023-02-03T17:03:13;8.38;;;2.90;;
323;SDS011;149;51.094;17.002;2023-02-03T17:05:44;15.80;;;2.80;;
323;SDS011;149;51.094;17.002;2023-02-03T17:08:13;9.80;;;2.75;;
323;SDS011;149;51.094;17.002;2023-02-03T17:10:41;13.30;;;3.63;;
323;SDS011;149;51.094;17.002;2023-02-03T17:13:10;6.15;;;2.30;;
323;SDS011;149;51.094;17.002;2023-02-03T17:15:42;10.77;;;2.85;;
323;SDS011;149;51.094;17.002;2023-02-03T17:18:12;14.55;;;3.35;;
323;SDS011;149;51.094;17.002;2023-02-03T17:20:42;10.43;;;2.90;;
323;SDS011;149;51.094;17.002;2023-02-03T17:23:10;11.52;;;3.45;;
323;SDS011;149;51.094;17.002;2023-02-03T17:25:39;8.10;;;2.85;;
323;SDS011;149;51.094;17.002;2023-02-03T17:28:10;9.45;;;4.15;;
323;SDS011;149;51.094;17.002;2023-02-03T17:30:40;13.45;;;3.35;;
323;SDS011;149;51.094;17.002;2023-02-03T17:33:09;14.77;;;4.47;;
323;SDS011;149;51.094;17.002;2023-02-03T17:35:40;15.02;;;4.65;;
323;SDS011;149;51.094;17.002;2023-02-03T17:38:10;15.57;;;4.82;;
323;SDS011;149;51.094;17.002;2023-02-03T17:40:40;9.32;;;4.15;;
323;SDS011;149;51.094;17.002;2023-02-03T17:43:26;16.42;;;3.72;;
323;SDS011;149;51.094;17.002;2023-02-03T17:46:14;16.60;;;4.13;;
323;SDS011;149;51.094;17.002;2023-02-03T17:49:01;16.90;;;3.55;;
323;SDS011;149;51.094;17.002;2023-02-03T17:51:47;10.60;;;2.60;;
323;SDS011;149;51.094;17.002;2023-02-03T17:54:32;7.05;;;3.03;;
323;SDS011;149;51.094;17.002;2023-02-03T17:56:58;9.57;;;3.08;;
323;SDS011;149;51.094;17.002;2023-02-03T17:59:27;9.13;;;2.97;;
323;SDS011;149;51.094;17.002;2023-02-03T18:01:58;14.90;;;5.25;;
323;SDS011;149;51.094;17.002;2023-02-03T18:04:25;14.50;;;3.65;;
323;SDS011;149;51.094;17.002;2023-02-03T18:06:55;17.00;;;5.55;;
323;SDS011;149;51.094;17.002;2023-02-03T18:09:23;11.95;;;3.30;;
323;SDS011;149;51.094;17.002;2023-02-03T18:11:51;12.43;;;3.63;;
323;SDS011;149;51.094;17.002;2023-02-03T18:14:18;13.85;;;4.07;;
323;SDS011;149;51.094;17.002;2023-02-03T18:16:47;11.00;;;3.35;;
323;SDS011;149;51.094;17.002;2023-02-03T18:19:15;12.95;;;4.15;;
323;SDS011;149;51.094;17.002;2023-02-03T18:21:43;15.40;;;4.40;;
323;SDS011;149;51.094;17.002;2023-02-03T18:24:11;13.82;;;4.75;;
323;SDS011;149;51.094;17.002;2023-02-03T18:26:44;19.58;;;5.60;;
323;SDS011;149;51.094;17.002;2023-02-03T18:29:13;12.30;;;4.15;;
323;SDS011;149;51.094;17.002;2023-02-03T18:31:44;14.35;;;6.10;;
323;SDS011;149;51.094;17.002;2023-02-03T18:34:13;11.05;;;4.20;;
323;SDS011;149;51.094;17.002;2023-02-03T18:36:43;11.90;;;4.10;;
323;SDS011;149;51.094;17.002;2023-02-03T18:39:10;15.70;;;5.53;;
323;SDS011;149;51.094;17.002;2023-02-03T18:41:39;17.08;;;5.82;;
323;SDS011;149;51.094;17.002;2023-02-03T18:44:07;9.80;;;4.20;;
323;SDS011;149;51.094;17.002;2023-02-03T18:46:34;9.75;;;4.53;;
323;SDS011;149;51.094;17.002;2023-02-03T18:49:02;9.82;;;4.00;;
323;SDS011;149;51.094;17.002;2023-02-03T18:51:32;14.75;;;3.13;;
323;SDS011;149;51.094;17.002;2023-02-03T18:54:01;16.73;;;3.13;;
323;SDS011;149;51.094;17.002;2023-02-03T18:56:29;7.93;;;3.38;;
323;SDS011;149;51.094;17.002;2023-02-03T18:59:03;11.48;;;3.85;;
323;SDS011;149;51.094;17.002;2023-02-03T19:01:34;8.98;;;3.50;;
323;SDS011;149;51.094;17.002;2023-02-03T19:04:03;12.52;;;4.53;;
323;SDS011;149;51.094;17.002;2023-02-03T19:06:34;11.73;;;4.10;;
323;SDS011;149;51.094;17.002;2023-02-03T19:09:01;10.90;;;4.10;;
323;SDS011;149;51.094;17.002;2023-02-03T19:11:29;11.75;;;4.32;;
323;SDS011;149;51.094;17.002;2023-02-03T19:13:59;7.13;;;3.65;;
323;SDS011;149;51.094;17.002;2023-02-03T19:16:26;18.92;;;4.80;;
323;SDS011;149;51.094;17.002;2023-02-03T19:18:53;11.82;;;3.25;;
323;SDS011;149;51.094;17.002;2023-02-03T19:21:20;15.10;;;5.75;;
323;SDS011;149;51.094;17.002;2023-02-03T19:23:47;12.13;;;5.50;;
323;SDS011;149;51.094;17.002;2023-02-03T19:26:14;9.98;;;4.50;;
323;SDS011;149;51.094;17.002;2023-02-03T19:28:41;17.50;;;4.40;;
323;SDS011;149;51.094;17.002;2023-02-03T19:31:10;15.35;;;3.63;;
323;SDS011;149;51.094;17.002;2023-02-03T19:33:39;11.07;;;3.53;;
323;SDS011;149;51.094;17.002;2023-02-03T19:36:10;13.43;;;4.22;;
323;SDS011;149;51.094;17.002;2023-02-03T19:38:37;11.45;;;3.10;;
323;SDS011;149;51.094;17.002;2023-02-03T19:41:05;10.80;;;4.18;;
323;SDS011;149;51.094;17.002;2023-02-03T19:43:36;12.02;;;3.42;;